Time;durP1;ratioP1;P1;durP2;ratioP2;P2;SDS_P1;SDS_P2;PMS_P1;PMS_P2;Temp;Humidity;BMP_temperature;BMP_pressure;BME280_temperature;BME280_humidity;BME280_pressure;Samples;Min_cycle;Max_cycle;Signal;HPM_P1;HPM_P2
2022/08/24 00:01:50;;;;;;;4.88;4.40;;;;;;;19.17;67.36;97149.31;10424903;28;20401;-47
2022/08/24 00:07:09;;;;;;;4.45;4.05;;;;;;;19.17;67.24;97143.91;10418170;28;20053;-48
2022/08/24 00:12:30;;;;;;;4.78;4.38;;;;;;;19.18;67.31;97142.00;10431313;28;20067;-46
2022/08/24 00:17:49;;;;;;;4.82;4.43;;;;;;;19.17;67.36;97138.50;10424581;28;20428;-49
2022/08/24 00:23:09;;;;;;;4.38;3.97;;;;;;;19.17;67.28;97145.81;10418147;28;20432;-49
2022/08/24 00:28:29;;;;;;;4.35;3.95;;;;;;;19.17;67.31;97140.41;10417787;28;20444;-49
2022/08/24 00:33:48;;;;;;;4.25;3.90;;;;;;;19.17;67.29;97148.50;10404950;28;20113;-49
2022/08/24 00:39:09;;;;;;;4.32;3.95;;;;;;;19.19;67.30;97142.78;10401947;28;20052;-48
2022/08/24 00:44:29;;;;;;;4.47;4.10;;;;;;;19.17;67.27;97127.69;10427076;28;20489;-49
2022/08/24 00:50:03;;;;;;;4.28;3.88;;;;;;;19.18;67.36;97133.88;10429987;28;20057;-49
2022/08/24 00:55:29;;;;;;;4.45;4.05;;;;;;;19.17;67.31;97138.50;10401526;28;20057;-49
2022/08/24 01:00:54;;;;;;;4.38;3.90;;;;;;;19.17;67.25;97143.13;10415758;28;20488;-59
2022/08/24 01:06:14;;;;;;;4.18;3.88;;;;;;;19.16;67.25;97139.59;10405126;28;20053;-59
2022/08/24 01:11:34;;;;;;;4.05;3.75;;;;;;;19.16;67.25;97142.28;10429312;28;20052;-59
2022/08/24 01:22:44;;;;;;;4.47;4.07;;;;;;;19.17;67.29;97137.72;10415382;28;20049;-59
2022/08/24 01:28:08;;;;;;;4.38;4.05;;;;;;;19.17;67.35;97138.50;10400076;28;20041;-59
2022/08/24 01:33:30;;;;;;;4.55;3.80;;;;;;;19.16;67.23;97133.41;10413009;28;20038;-58
2022/08/24 01:38:49;;;;;;;4.32;3.92;;;;;;;19.16;67.39;97126.09;10399729;28;20056;-58
2022/08/24 01:44:09;;;;;;;4.13;3.83;;;;;;;19.17;67.35;97126.91;10414179;28;20053;-59
2022/08/24 01:49:31;;;;;;;4.40;3.97;;;;;;;19.15;67.30;97132.63;10413036;28;20045;-58
2022/08/24 01:54:53;;;;;;;4.85;4.13;;;;;;;19.16;67.26;97134.19;10398962;28;20076;-58
2022/08/24 02:00:13;;;;;;;3.95;3.65;;;;;;;19.16;67.29;97142.28;10404418;28;20049;-59
2022/08/24 02:05:33;;;;;;;4.43;4.03;;;;;;;19.17;67.19;97143.91;10411463;28;20061;-59
2022/08/24 02:10:53;;;;;;;4.15;3.85;;;;;;;19.16;67.34;97146.91;10408333;28;20488;-59
2022/08/24 02:16:13;;;;;;;4.30;3.90;;;;;;;19.16;67.37;97142.28;10424969;28;20554;-59
2022/08/24 02:21:33;;;;;;;4.05;3.75;;;;;;;19.16;67.30;97152.31;10412170;28;20489;-58
2022/08/24 02:26:52;;;;;;;4.10;3.70;;;;;;;19.15;67.34;97146.13;10413680;28;20045;-59
2022/08/24 02:32:12;;;;;;;4.25;3.85;;;;;;;19.16;67.38;97146.91;10413788;28;20046;-59
2022/08/24 02:37:31;;;;;;;4.25;3.80;;;;;;;19.15;67.34;97151.53;10398682;28;20099;-57
2022/08/24 02:42:51;;;;;;;3.85;3.55;;;;;;;19.16;67.31;97157.72;10398745;28;20409;-59
2022/08/24 02:48:12;;;;;;;4.18;3.88;;;;;;;19.15;67.30;97161.50;10402205;28;20060;-59
2022/08/24 02:53:31;;;;;;;4.07;3.78;;;;;;;19.16;67.39;97158.50;10411365;28;20041;-59
2022/08/24 02:58:52;;;;;;;4.38;3.90;;;;;;;19.16;67.24;97147.69;10398127;28;20053;-59
2022/08/24 03:04:12;;;;;;;4.20;3.85;;;;;;;19.15;67.30;97151.53;10397498;28;20527;-58
2022/08/24 03:09:31;;;;;;;4.18;3.78;;;;;;;19.15;67.54;97146.13;10400662;28;20405;-58
2022/08/24 03:14:51;;;;;;;4.10;3.80;;;;;;;19.16;67.24;97152.31;10405572;28;20103;-59
2022/08/24 03:20:14;;;;;;;4.13;3.83;;;;;;;19.16;67.25;97150.41;10419993;28;20045;-59
2022/08/24 03:25:33;;;;;;;4.05;3.75;;;;;;;19.15;67.27;97150.69;10391432;28;20452;-59
2022/08/24 03:30:53;;;;;;;3.85;3.55;;;;;;;19.17;67.30;97159.31;10417973;28;20049;-59
2022/08/24 03:36:14;;;;;;;4.88;4.20;;;;;;;19.16;67.25;97155.78;10419338;28;20132;-59
2022/08/24 03:41:33;;;;;;;4.22;3.78;;;;;;;19.16;67.31;97152.31;10403580;28;20061;-59
2022/08/24 03:46:54;;;;;;;5.13;3.95;;;;;;;19.16;67.32;97155.00;10419407;28;20053;-59
2022/08/24 03:52:15;;;;;;;4.03;3.70;;;;;;;19.16;67.32;97163.13;10404492;28;20056;-59
2022/08/24 03:57:37;;;;;;;6.28;4.20;;;;;;;19.13;67.32;97159.13;10403984;28;20103;-57
2022/08/24 04:02:56;;;;;;;4.18;3.80;;;;;;;19.16;67.38;97169.31;10392716;28;20519;-59
2022/08/24 04:08:19;;;;;;;4.30;3.90;;;;;;;19.15;67.43;97177.72;10403724;28;20049;-59
2022/08/24 04:13:39;;;;;;;4.43;4.03;;;;;;;19.16;67.41;97174.69;10403560;28;20394;-58
2022/08/24 04:18:59;;;;;;;4.50;4.10;;;;;;;19.15;67.25;97175.81;10416067;28;20555;-59
2022/08/24 04:24:19;;;;;;;4.47;4.07;;;;;;;19.15;67.46;97175.81;10401812;28;20045;-59
2022/08/24 04:29:39;;;;;;;4.70;4.30;;;;;;;19.13;67.39;97169.94;10402757;28;20057;-58
2022/08/24 04:34:58;;;;;;;4.47;4.10;;;;;;;19.15;67.25;97183.09;10416699;28;20515;-58
2022/08/24 04:40:18;;;;;;;4.53;4.13;;;;;;;19.15;67.37;97191.22;10401978;28;20049;-59
2022/08/24 04:45:42;;;;;;;4.82;4.43;;;;;;;19.15;67.32;97188.50;10402262;28;20057;-59
2022/08/24 04:51:07;;;;;;;4.50;4.10;;;;;;;19.14;67.52;97192.34;10401788;28;20441;-59
2022/08/24 04:56:27;;;;;;;4.50;4.10;;;;;;;19.15;67.27;97199.31;10405760;28;20071;-59
2022/08/24 05:01:50;;;;;;;4.47;4.05;;;;;;;19.13;67.40;97210.44;10401666;28;20056;-59
2022/08/24 05:07:11;;;;;;;4.80;4.38;;;;;;;19.15;67.20;97207.41;10416057;28;20421;-58
2022/08/24 05:12:33;;;;;;;4.45;4.05;;;;;;;19.14;67.27;97203.94;10401383;28;20111;-58
2022/08/24 05:17:56;;;;;;;4.00;3.67;;;;;;;19.13;67.29;97204.22;10413889;28;20059;-58
2022/08/24 05:23:18;;;;;;;4.47;4.07;;;;;;;19.14;67.38;97211.25;10396518;28;20058;-59
2022/08/24 05:28:38;;;;;;;4.85;4.45;;;;;;;19.15;67.42;97204.72;10387795;28;20057;-59
2022/08/24 05:33:59;;;;;;;4.78;4.30;;;;;;;19.15;67.32;97208.22;10399981;28;20053;-59
2022/08/24 05:39:19;;;;;;;4.85;4.35;;;;;;;19.15;67.31;97210.13;10423736;28;20053;-59
2022/08/24 05:44:46;;;;;;;4.95;4.45;;;;;;;19.15;67.34;97204.72;10399755;28;20053;-58
2022/08/24 05:50:08;;;;;;;4.93;4.50;;;;;;;19.14;67.59;97211.25;10399724;28;20044;-58
2022/08/24 05:55:29;;;;;;;6.82;6.13;;;;;;;19.15;68.26;97207.41;10399819;28;20066;-59
2022/08/24 06:00:49;;;;;;;9.60;8.00;;;;;;;19.15;69.04;97210.94;10398648;28;20517;-59
2022/08/24 06:06:10;;;;;;;11.40;8.98;;;;;;;19.14;69.60;97214.72;10414374;28;20057;-58
2022/08/24 06:11:38;;;;;;;11.80;9.07;;;;;;;19.13;69.85;97213.16;10414000;28;20103;-59
2022/08/24 06:17:00;;;;;;;10.63;9.15;;;;;;;19.12;70.25;97210.75;10396047;28;20049;-59
2022/08/24 06:22:20;;;;;;;13.93;8.98;;;;;;;19.12;70.37;97218.84;10400965;28;20045;-59
2022/08/24 06:27:40;;;;;;;14.13;9.68;;;;;;;19.11;70.69;97218.06;10398430;28;20540;-59
2022/08/24 06:33:01;;;;;;;15.13;9.73;;;;;;;19.12;70.82;97218.84;10398432;28;20425;-59
2022/08/24 06:38:29;;;;;;;14.55;10.82;;;;;;;19.11;71.09;97203.75;10410025;28;20045;-58
2022/08/24 06:43:49;;;;;;;18.38;10.93;;;;;;;19.10;71.29;97213.75;10400258;28;20050;-58
2022/08/24 06:49:09;;;;;;;17.30;11.27;;;;;;;19.10;71.54;97213.75;10421350;28;20060;-58
2022/08/24 06:54:29;;;;;;;15.40;11.45;;;;;;;19.10;71.49;97229.97;10405714;28;20053;-58
2022/08/24 06:59:49;;;;;;;18.33;11.30;;;;;;;19.10;71.75;97221.06;10411439;28;20037;-59
2022/08/24 07:05:08;;;;;;;18.33;12.40;;;;;;;19.10;71.81;97234.56;10392306;28;20046;-59
2022/08/24 07:10:47;;;;;;;;;;;;;;;19.10;72.34;97235.38;10409429;28;20049;-59
2022/08/24 07:16:08;;;;;;;14.55;11.52;;;;;;;19.10;72.05;97235.38;10418661;28;20007;-59
2022/08/24 07:21:29;;;;;;;17.33;11.65;;;;;;;19.10;72.15;97235.38;10404733;28;20050;-59
2022/08/24 07:26:49;;;;;;;17.33;12.32;;;;;;;19.10;72.25;97234.56;10420028;28;20084;-59
2022/08/24 07:32:09;;;;;;;15.02;11.55;;;;;;;19.11;72.12;97238.84;10394096;28;20050;-58
2022/08/24 07:37:31;;;;;;;14.60;10.77;;;;;;;19.11;72.17;97236.16;10404324;28;20060;-59
2022/08/24 07:42:52;;;;;;;14.73;11.40;;;;;;;19.12;72.18;97243.16;10418970;28;20050;-58
2022/08/24 07:48:11;;;;;;;13.90;9.95;;;;;;;19.12;72.01;97254.75;10401982;28;20047;-59
2022/08/24 07:53:38;;;;;;;10.98;9.23;;;;;;;19.12;71.66;97257.44;10404279;28;20053;-57
2022/08/24 07:58:58;;;;;;;13.05;9.45;;;;;;;19.12;71.43;97265.56;10403651;28;20057;-58
2022/08/24 08:04:23;;;;;;;12.35;9.38;;;;;;;19.12;71.22;97268.25;10391406;28;20461;-59
2022/08/24 08:09:43;;;;;;;11.52;8.68;;;;;;;19.13;71.13;97267.16;10403565;28;20049;-59
2022/08/24 08:15:07;;;;;;;10.63;8.27;;;;;;;19.13;70.98;97271.75;10403566;28;20053;-59
2022/08/24 08:20:29;;;;;;;8.65;7.70;;;;;;;19.13;70.81;97271.75;10402773;28;20054;-60
2022/08/24 08:25:53;;;;;;;9.32;7.30;;;;;;;19.14;70.70;97279.53;10416238;28;20485;-59
2022/08/24 08:31:19;;;;;;;9.80;7.05;;;;;;;19.12;70.57;97281.75;10402003;28;20497;-59
2022/08/24 08:36:40;;;;;;;8.63;7.57;;;;;;;19.15;70.77;97291.13;10402423;28;20057;-58
2022/08/24 08:42:26;;;;;;;10.68;7.88;;;;;;;19.15;70.81;97288.44;10403692;28;20559;-59
2022/08/24 08:48:12;;;;;;;10.85;8.00;;;;;;;19.15;70.71;97286.56;10400063;28;20064;-59
2022/08/24 08:54:12;;;;;;;8.63;7.65;;;;;;;19.15;70.58;97291.97;10380825;28;20057;-58
2022/08/24 09:00:08;;;;;;;9.90;8.20;;;;;;;19.16;70.62;97287.34;10396359;28;20053;-58
2022/08/24 09:05:46;;;;;;;11.60;8.32;;;;;;;19.16;70.61;97290.84;10401035;28;20046;-59
2022/08/24 09:11:07;;;;;;;8.27;7.47;;;;;;;19.17;70.61;97287.03;10390666;28;20056;-59
2022/08/24 09:16:54;;;;;;;8.68;7.78;;;;;;;19.19;70.54;97291.31;10400167;28;20520;-58
2022/08/24 09:22:16;;;;;;;16.90;9.50;;;;;;;19.19;70.65;97292.13;10403437;28;20053;-59
2022/08/24 09:27:55;;;;;;;11.10;8.35;;;;;;;19.21;70.87;97292.63;10400445;28;20057;-60
2022/08/24 09:33:29;;;;;;;12.63;8.07;;;;;;;19.21;70.85;97294.50;10415164;28;20409;-58
2022/08/24 09:38:59;;;;;;;14.57;10.45;;;;;;;19.23;70.94;97286.88;10405034;28;20080;-59
2022/08/24 09:44:46;;;;;;;14.73;11.38;;;;;;;19.24;71.37;97296.59;10399943;28;20060;-59
2022/08/24 09:50:20;;;;;;;14.32;11.52;;;;;;;19.23;71.62;97290.41;10405150;28;20052;-59
2022/08/24 09:55:52;;;;;;;13.23;10.07;;;;;;;19.26;72.18;97297.09;10414209;28;20493;-59
2022/08/24 10:01:35;;;;;;;10.20;9.13;;;;;;;19.26;72.64;97297.88;10411696;28;20143;-59
2022/08/24 10:07:11;;;;;;;10.77;8.43;;;;;;;19.29;72.98;97288.38;10399279;28;20064;-59
2022/08/24 10:12:58;;;;;;;9.38;8.15;;;;;;;19.29;73.26;97286.47;10399532;28;20049;-59
2022/08/24 10:18:24;;;;;;;10.90;8.55;;;;;;;19.31;73.42;97294.28;10399965;28;20050;-60
2022/08/24 10:24:06;;;;;;;9.95;7.95;;;;;;;19.31;73.53;97295.06;10435770;28;20547;-59
2022/08/24 10:29:45;;;;;;;9.98;7.85;;;;;;;19.32;73.45;97293.16;10422265;28;20045;-60
2022/08/24 10:35:12;;;;;;;8.30;7.50;;;;;;;19.33;73.51;97292.06;10407089;28;20054;-59
2022/08/24 10:40:50;;;;;;;8.57;7.63;;;;;;;19.34;73.39;97286.31;10421201;28;20057;-58
2022/08/24 10:46:31;;;;;;;8.77;7.78;;;;;;;19.35;73.35;97284.44;10421937;28;20056;-59
2022/08/24 10:52:28;;;;;;;8.52;6.80;;;;;;;19.35;73.12;97279.81;10413668;28;20053;-59
2022/08/24 10:58:09;;;;;;;8.27;7.15;;;;;;;19.36;72.92;97288.72;10412459;28;20053;-59
2022/08/24 11:03:28;;;;;;;8.95;7.45;;;;;;;19.38;72.70;97286.50;10421324;28;20132;-59
2022/08/24 11:09:14;;;;;;;7.90;7.10;;;;;;;19.38;72.87;97283.78;10421193;28;20049;-59
2022/08/24 11:14:37;;;;;;;8.20;7.38;;;;;;;19.38;72.80;97281.09;10425963;28;20083;-59
2022/08/24 11:19:58;;;;;;;7.97;7.18;;;;;;;19.40;72.74;97289.69;10420281;28;20045;-59
2022/08/24 11:25:29;;;;;;;7.05;6.30;;;;;;;19.39;72.82;97293.50;10433186;28;20044;-59
2022/08/24 11:30:48;;;;;;;9.35;7.35;;;;;;;19.41;72.78;97294.00;10404624;28;20049;-59
2022/08/24 11:36:22;;;;;;;7.93;6.90;;;;;;;19.43;72.72;97291.78;10419910;28;20053;-59
2022/08/24 11:41:55;;;;;;;8.13;7.32;;;;;;;19.43;72.69;97283.66;10410596;28;20054;-60
2022/08/24 11:47:17;;;;;;;7.95;6.93;;;;;;;19.44;72.88;97281.75;10404756;28;20053;-60
2022/08/24 11:52:44;;;;;;;8.43;7.55;;;;;;;19.44;72.68;97281.75;10432536;28;20041;-60
2022/08/24 11:58:28;;;;;;;9.07;7.63;;;;;;;19.44;72.74;97282.53;10407440;28;20515;-60
2022/08/24 12:03:59;;;;;;;8.70;7.55;;;;;;;19.46;72.78;97274.91;10419127;28;20056;-60
2022/08/24 12:09:52;;;;;;;8.52;7.63;;;;;;;19.48;72.77;97278.13;10407157;28;20045;-59
2022/08/24 12:15:27;;;;;;;9.32;7.78;;;;;;;19.48;72.63;97278.13;10431668;28;20053;-60
2022/08/24 12:20:48;;;;;;;9.15;8.07;;;;;;;19.47;72.78;97276.53;10392598;28;20045;-59
2022/08/24 12:26:42;;;;;;;8.60;7.70;;;;;;;19.48;72.65;97272.72;10418205;28;20064;-60
2022/08/24 12:32:14;;;;;;;9.60;8.02;;;;;;;19.50;72.58;97269.69;10406432;28;20050;-59
2022/08/24 12:38:07;;;;;;;12.48;8.20;;;;;;;19.51;72.38;97269.38;10417804;28;20405;-59
2022/08/24 12:43:31;;;;;;;10.70;8.02;;;;;;;19.52;72.54;97267.47;10358183;28;20404;-58
2022/08/24 12:49:12;;;;;;;9.82;8.13;;;;;;;19.51;72.64;97266.69;10401917;28;20049;-60
2022/08/24 12:54:32;;;;;;;12.23;7.32;;;;;;;19.51;72.56;97266.69;10416016;28;20061;-59
2022/08/24 12:59:55;;;;;;;10.88;8.23;;;;;;;19.53;72.57;97267.16;10406475;28;20075;-60
2022/08/24 13:05:17;;;;;;;10.73;8.27;;;;;;;19.53;72.44;97260.97;10416393;28;20056;-60
2022/08/24 13:10:44;;;;;;;12.18;8.45;;;;;;;19.53;72.27;97263.69;10429223;28;20045;-59
2022/08/24 13:16:04;;;;;;;11.55;8.57;;;;;;;19.53;72.35;97264.47;10392282;28;20060;-59
2022/08/24 13:21:54;;;;;;;10.30;8.13;;;;;;;19.54;72.28;97260.69;10415969;28;20136;-59
2022/08/24 13:27:14;;;;;;;9.38;7.80;;;;;;;19.54;72.15;97266.06;10415169;28;20066;-60
2022/08/24 13:32:35;;;;;;;8.90;7.40;;;;;;;19.55;72.19;97264.94;10415612;28;20057;-60
2022/08/24 13:38:22;;;;;;;9.10;7.45;;;;;;;19.56;72.01;97265.75;10399450;28;20053;-59
2022/08/24 13:43:50;;;;;;;11.80;8.20;;;;;;;19.55;72.01;97262.25;10406175;28;20053;-60
2022/08/24 13:49:13;;;;;;;9.45;7.45;;;;;;;19.55;71.98;97256.06;10413149;28;20094;-60
2022/08/24 13:54:38;;;;;;;9.50;7.18;;;;;;;19.56;71.89;97263.03;10413803;28;20087;-60
2022/08/24 14:00:17;;;;;;;9.20;7.55;;;;;;;19.56;71.98;97261.16;10399683;28;20144;-60
2022/08/24 14:05:53;;;;;;;10.32;7.88;;;;;;;19.56;71.88;97254.94;10399813;28;20065;-60
2022/08/24 14:11:18;;;;;;;10.85;7.28;;;;;;;19.55;71.94;97251.44;10405043;28;20493;-59
2022/08/24 14:22:55;;;;;;;9.02;7.22;;;;;;;19.56;72.00;97258.44;10409671;28;20057;-60
2022/08/24 14:28:24;;;;;;;8.02;7.20;;;;;;;19.56;71.94;97249.53;10414118;28;20061;-59
2022/08/24 14:34:02;;;;;;;7.47;6.65;;;;;;;19.56;72.06;97247.66;10416483;28;20042;-60
2022/08/24 14:39:37;;;;;;;7.20;6.30;;;;;;;19.57;72.02;97243.03;10413475;28;20107;-59
2022/08/24 14:45:01;;;;;;;8.48;6.78;;;;;;;19.58;72.10;97241.91;10413743;28;20049;-59
2022/08/24 14:50:32;;;;;;;8.20;6.78;;;;;;;19.61;72.19;97245.91;10413646;28;20095;-60
2022/08/24 14:56:00;;;;;;;8.65;6.72;;;;;;;19.62;72.19;97239.38;10412994;28;20061;-60
2022/08/24 15:01:27;;;;;;;7.95;6.38;;;;;;;19.64;72.24;97245.25;10424576;28;20041;-59
2022/08/24 15:07:17;;;;;;;7.78;6.38;;;;;;;19.65;72.38;97242.25;10402941;28;20107;-60
2022/08/24 15:12:38;;;;;;;7.68;6.80;;;;;;;19.64;72.29;97239.84;10405807;28;20045;-59
2022/08/24 15:18:00;;;;;;;7.82;6.28;;;;;;;19.63;72.18;97230.97;10415118;28;20049;-60
2022/08/24 15:23:40;;;;;;;7.78;6.50;;;;;;;19.65;72.12;97233.34;10420609;28;20060;-60
2022/08/24 15:29:11;;;;;;;7.57;6.78;;;;;;;19.68;72.23;97232.72;10396098;28;20052;-59
2022/08/24 15:34:32;;;;;;;7.90;7.13;;;;;;;19.69;72.17;97227.00;10419214;28;20563;-60
2022/08/24 15:39:52;;;;;;;7.88;7.07;;;;;;;19.72;72.22;97225.63;10418772;28;20061;-60
2022/08/24 15:45:12;;;;;;;8.77;7.10;;;;;;;19.72;72.43;97222.91;10419057;28;20473;-60
2022/08/24 15:50:34;;;;;;;8.07;7.38;;;;;;;19.76;72.71;97221.19;10417444;28;20045;-60
2022/08/24 15:55:54;;;;;;;11.27;7.70;;;;;;;19.79;72.93;97214.34;10404468;28;20057;-58
2022/08/24 16:06:52;;;;;;;9.45;8.45;;;;;;;19.86;73.44;97206.56;10418973;28;20092;-57
2022/08/24 16:12:22;;;;;;;9.50;7.63;;;;;;;19.89;73.62;97200.50;10418090;28;20049;-59
2022/08/24 16:17:50;;;;;;;9.52;7.55;;;;;;;19.90;73.74;97199.41;10423129;28;20033;-58
2022/08/24 16:23:14;;;;;;;8.68;7.78;;;;;;;19.91;73.76;97198.28;10403470;28;20409;-58
2022/08/24 16:28:35;;;;;;;10.70;7.38;;;;;;;19.92;73.79;97197.19;10403393;28;20070;-58
2022/08/24 16:34:11;;;;;;;8.30;7.50;;;;;;;19.92;73.65;97203.38;10417314;28;20091;-59
2022/08/24 16:39:32;;;;;;;10.43;7.35;;;;;;;19.92;73.86;97197.97;10402203;28;20049;-57
2022/08/24 16:44:53;;;;;;;7.95;7.18;;;;;;;19.94;73.77;97205.78;10404625;28;20072;-58
2022/08/24 16:50:14;;;;;;;9.90;7.60;;;;;;;19.93;73.67;97199.56;10416855;28;20103;-58
2022/08/24 16:55:33;;;;;;;8.25;7.40;;;;;;;19.94;73.70;97200.38;10416084;28;20061;-57
2022/08/24 17:00:53;;;;;;;8.13;6.93;;;;;;;19.92;73.86;97202.59;10415690;28;20061;-58
2022/08/24 17:06:14;;;;;;;8.00;7.20;;;;;;;19.89;73.71;97205.91;10416587;28;20163;-57
2022/08/24 17:11:35;;;;;;;8.45;7.35;;;;;;;19.88;73.72;97207.81;10416191;28;20104;-58
2022/08/24 17:16:56;;;;;;;10.05;7.40;;;;;;;19.88;73.67;97212.44;10415824;28;20386;-58
2022/08/24 17:22:16;;;;;;;8.30;6.65;;;;;;;19.87;73.61;97210.84;10403696;28;20057;-59
2022/08/24 17:27:36;;;;;;;8.38;7.32;;;;;;;19.85;73.53;97213.84;10415354;28;20072;-59
2022/08/24 17:32:55;;;;;;;7.90;6.75;;;;;;;19.85;73.41;97213.06;10396688;28;20046;-59
2022/08/24 17:38:15;;;;;;;9.15;6.88;;;;;;;19.85;73.31;97216.56;10415076;28;20058;-56
2022/08/24 17:43:34;;;;;;;7.22;6.53;;;;;;;19.85;73.20;97226.59;10428188;28;20045;-58
2022/08/24 17:48:55;;;;;;;7.18;6.55;;;;;;;19.84;73.15;97236.63;10428201;28;20417;-60
2022/08/24 17:54:16;;;;;;;9.20;7.32;;;;;;;19.82;72.99;97238.84;10414850;28;20107;-59
2022/08/24 17:59:35;;;;;;;7.63;6.63;;;;;;;19.82;72.86;97236.13;10402168;28;20058;-60
2022/08/24 18:04:54;;;;;;;8.15;7.35;;;;;;;19.82;72.74;97235.34;10425774;28;20056;-60
2022/08/24 18:10:17;;;;;;;7.80;7.10;;;;;;;19.81;72.85;97248.03;10413961;28;20056;-60
2022/08/24 18:15:37;;;;;;;9.65;6.68;;;;;;;19.79;72.87;97244.84;10414072;28;20056;-60
2022/08/24 18:20:56;;;;;;;10.65;7.00;;;;;;;19.81;72.72;97253.44;10413449;28;20049;-59
2022/08/24 18:26:25;;;;;;;7.40;6.53;;;;;;;19.81;72.58;97252.66;10413379;28;20526;-59
2022/08/24 18:31:44;;;;;;;7.72;6.93;;;;;;;19.78;72.49;97259.50;10411849;28;20470;-59
2022/08/24 18:37:04;;;;;;;8.15;6.70;;;;;;;19.78;72.35;97259.50;10413974;28;20053;-59
2022/08/24 18:42:25;;;;;;;7.32;6.63;;;;;;;19.79;72.16;97260.28;10418876;28;20065;-60
2022/08/24 18:47:46;;;;;;;7.18;6.47;;;;;;;19.81;72.09;97268.88;10421840;28;20123;-60
2022/08/24 18:53:06;;;;;;;7.30;6.57;;;;;;;19.78;71.99;97278.44;10410181;28;20061;-60
2022/08/24 18:58:25;;;;;;;7.15;6.45;;;;;;;19.78;71.82;97273.03;10412407;28;20488;-59
2022/08/24 19:03:45;;;;;;;7.28;6.68;;;;;;;19.78;71.76;97281.13;10425485;28;20358;-60
2022/08/24 19:09:04;;;;;;;7.03;6.32;;;;;;;19.76;71.53;97277.94;10421095;28;20477;-60
2022/08/24 19:14:24;;;;;;;7.47;6.78;;;;;;;19.76;71.49;97283.34;10405885;28;20069;-58
2022/08/24 19:19:44;;;;;;;7.85;7.15;;;;;;;19.76;71.44;97283.34;10405744;28;20107;-60
2022/08/24 19:25:05;;;;;;;7.68;6.97;;;;;;;19.77;71.29;97284.94;10419624;28;20053;-60
2022/08/24 19:30:26;;;;;;;7.57;6.88;;;;;;;19.75;71.18;97287.94;10407895;28;20500;-59
2022/08/24 19:35:46;;;;;;;8.40;7.60;;;;;;;19.76;71.15;97277.94;10419845;28;20049;-60
2022/08/24 19:41:07;;;;;;;7.80;7.10;;;;;;;19.76;71.11;97280.66;10419182;28;20054;-60
2022/08/24 19:46:28;;;;;;;7.28;6.57;;;;;;;19.74;70.94;97270.13;10432984;28;20382;-59
2022/08/24 19:51:48;;;;;;;7.13;6.53;;;;;;;19.74;70.84;97267.44;10432137;28;20044;-60
2022/08/24 19:57:49;;;;;;;8.40;6.93;;;;;;;19.73;70.82;97254.22;10418613;28;20056;-59
2022/08/24 20:03:09;;;;;;;7.88;7.07;;;;;;;19.74;70.84;97255.84;10205673;29;20114;-60
2022/08/24 20:08:28;;;;;;;7.32;6.63;;;;;;;19.74;70.72;97263.94;10395187;28;20108;-59
2022/08/24 20:13:48;;;;;;;7.30;6.70;;;;;;;19.74;70.71;97255.84;10428974;28;20048;-59
2022/08/24 20:19:09;;;;;;;7.85;7.15;;;;;;;19.74;70.62;97262.03;10403681;28;20080;-60
2022/08/24 20:24:29;;;;;;;7.00;6.40;;;;;;;19.73;70.63;97257.72;10418230;28;20100;-60
2022/08/24 20:29:49;;;;;;;7.80;7.00;;;;;;;19.73;70.54;97270.44;10431151;28;20052;-59
2022/08/24 20:35:08;;;;;;;7.40;6.70;;;;;;;19.73;70.52;97275.84;10405677;28;20050;-59
2022/08/24 20:40:28;;;;;;;7.47;6.60;;;;;;;19.73;70.47;97270.44;10416873;28;20049;-60
2022/08/24 20:45:51;;;;;;;7.20;6.60;;;;;;;19.73;70.37;97267.75;10417494;28;20053;-60
2022/08/24 20:51:10;;;;;;;8.05;7.22;;;;;;;19.72;70.39;97271.56;10417008;28;20072;-58
2022/08/24 20:56:32;;;;;;;7.57;6.78;;;;;;;19.73;70.38;97267.75;10416727;28;20049;-59
2022/08/24 21:01:54;;;;;;;7.32;6.60;;;;;;;19.72;70.37;97264.25;10410765;28;20057;-60
2022/08/24 21:07:14;;;;;;;8.68;7.30;;;;;;;19.71;70.30;97264.53;10416455;28;20057;-59
2022/08/24 21:12:33;;;;;;;7.35;6.65;;;;;;;19.72;70.25;97271.56;10416524;28;20091;-60
2022/08/24 21:17:53;;;;;;;8.20;7.40;;;;;;;19.72;70.22;97266.16;10416189;28;20056;-60
2022/08/24 21:23:12;;;;;;;8.20;7.40;;;;;;;19.72;70.25;97271.56;10428710;28;20033;-59
2022/08/24 21:28:33;;;;;;;7.78;7.00;;;;;;;19.72;70.23;97274.28;10415519;28;20119;-59
2022/08/24 21:39:32;;;;;;;8.32;7.53;;;;;;;19.71;70.19;97284.28;10414973;28;20058;-59
2022/08/24 21:44:51;;;;;;;8.32;7.53;;;;;;;19.71;70.19;97280.75;10402707;28;20057;-60
2022/08/24 21:50:11;;;;;;;9.65;7.05;;;;;;;19.71;70.13;97278.88;10425477;28;20045;-60
2022/08/24 21:55:30;;;;;;;7.60;6.85;;;;;;;19.70;70.18;97276.47;10414284;28;20045;-60
2022/08/24 22:00:50;;;;;;;8.35;7.55;;;;;;;19.70;70.03;97274.56;10405701;28;20045;-56
2022/08/24 22:06:11;;;;;;;7.95;7.25;;;;;;;19.70;70.03;97279.97;10417178;28;20041;-60
2022/08/24 22:11:31;;;;;;;7.65;6.93;;;;;;;19.71;70.10;97276.16;10414500;28;20448;-60
2022/08/24 22:16:50;;;;;;;8.73;7.78;;;;;;;19.70;70.14;97269.16;10413564;28;20062;-59
2022/08/24 22:22:09;;;;;;;7.75;6.95;;;;;;;19.69;70.06;97258.66;10401460;28;20045;-60
2022/08/24 22:27:29;;;;;;;12.90;8.60;;;;;;;19.70;69.97;97257.53;10427299;28;20052;-59
2022/08/24 22:32:48;;;;;;;7.88;7.15;;;;;;;19.69;70.10;97248.63;10413835;28;20054;-60
2022/08/24 22:38:07;;;;;;;7.82;7.13;;;;;;;19.69;69.96;97239.72;10413889;28;20076;-60
2022/08/24 22:44:17;;;;;;;7.70;7.00;;;;;;;19.68;69.97;97235.41;10403214;28;20045;-59
2022/08/24 22:49:07;;;;;;;7.13;6.53;;;;;;;19.69;70.03;97240.50;10412778;28;20050;-58
2022/08/24 22:54:26;;;;;;;7.68;6.97;;;;;;;19.68;69.81;97228.13;10413906;28;20381;-59
2022/08/24 22:59:46;;;;;;;8.35;7.55;;;;;;;19.69;69.87;97237.03;10395209;28;20061;-59
2022/08/24 23:05:07;;;;;;;8.25;7.53;;;;;;;19.69;69.86;97218.88;10413596;28;20050;-60
2022/08/24 23:10:26;;;;;;;9.35;7.18;;;;;;;19.69;69.85;97226.22;10412637;28;20546;-59
2022/08/24 23:15:45;;;;;;;9.23;7.72;;;;;;;19.69;69.84;97215.41;10415450;28;20049;-60
2022/08/24 23:21:10;;;;;;;7.90;7.20;;;;;;;19.69;69.99;97218.09;10412092;28;20056;-59
2022/08/24 23:26:31;;;;;;;7.57;6.95;;;;;;;19.69;69.85;97212.69;10415203;28;20452;-60
2022/08/24 23:31:52;;;;;;;8.25;7.55;;;;;;;19.68;69.66;97220.00;10419995;28;20072;-60
2022/08/24 23:37:12;;;;;;;8.65;7.55;;;;;;;19.68;69.74;97221.91;10420136;28;20045;-60
2022/08/24 23:42:32;;;;;;;10.48;8.00;;;;;;;19.67;69.76;97220.31;10419136;28;20056;-59
2022/08/24 23:47:52;;;;;;;8.50;7.68;;;;;;;19.68;69.75;97224.59;10419788;28;20050;-60
2022/08/24 23:53:11;;;;;;;8.43;7.70;;;;;;;19.67;69.76;97204.09;10408731;28;20049;-60
2022/08/24 23:58:30;;;;;;;8.88;7.97;;;;;;;19.66;69.79;97203.31;10419263;28;20053;-60
